createdAt,value
2022-11-13T00:00:35.433Z,4.83
2022-11-13T00:03:03.769Z,9.57
2022-11-13T00:05:31.993Z,6.20
2022-11-13T00:08:00.283Z,3.50
2022-11-13T00:10:29.970Z,8.93
2022-11-13T00:12:58.214Z,8.10
2022-11-13T00:15:26.526Z,7.40
2022-11-13T00:17:54.921Z,9.70
2022-11-13T00:20:23.233Z,7.33
2022-11-13T00:22:51.552Z,7.63
2022-11-13T00:25:19.798Z,6.77
2022-11-13T00:27:49.399Z,8.10
2022-11-13T00:30:19.528Z,5.47
2022-11-13T00:32:48.043Z,4.20
2022-11-13T00:35:16.373Z,6.20
2022-11-13T00:37:44.640Z,3.83
2022-11-13T00:40:13.141Z,6.17
2022-11-13T00:42:41.400Z,6.00
2022-11-13T00:45:11.510Z,4.77
2022-11-13T00:47:39.802Z,4.07
2022-11-13T00:50:08.322Z,6.00
2022-11-13T00:52:36.591Z,7.87
2022-11-13T00:55:04.918Z,6.27
2022-11-13T00:57:33.305Z,3.30
2022-11-13T01:00:01.631Z,5.93
2022-11-13T01:02:31.300Z,4.50
2022-11-13T01:04:59.542Z,4.57
2022-11-13T01:07:27.849Z,4.37
2022-11-13T01:09:56.215Z,6.77
2022-11-13T01:12:24.506Z,3.03
2022-11-13T01:14:52.785Z,4.97
2022-11-13T01:17:21.041Z,5.27
2022-11-13T01:19:50.671Z,5.00
2022-11-13T01:22:18.939Z,5.20
2022-11-13T01:24:47.201Z,6.03
2022-11-13T01:27:16.024Z,2.80
2022-11-13T01:29:44.250Z,4.67
2022-11-13T01:32:12.498Z,4.53
2022-11-13T01:34:40.777Z,3.83
2022-11-13T01:37:10.394Z,3.87
2022-11-13T01:39:38.716Z,4.17
2022-11-13T01:42:07.164Z,5.03
2022-11-13T01:44:48.754Z,2.40
2022-11-13T01:47:17.023Z,4.87
2022-11-13T01:49:45.303Z,3.57
2022-11-13T01:52:15.267Z,5.07
2022-11-13T01:54:44.567Z,5.30
2022-11-13T01:57:12.892Z,4.70
2022-11-13T01:59:41.722Z,3.53
2022-11-13T02:02:10.054Z,3.23
2022-11-13T02:04:38.384Z,4.23
2022-11-13T02:07:07.688Z,3.90
2022-11-13T02:09:37.750Z,5.93
2022-11-13T02:12:06.307Z,4.87
2022-11-13T02:14:34.582Z,3.80
2022-11-13T02:17:03.615Z,4.83
2022-11-13T02:19:32.582Z,4.23
2022-11-13T02:22:01.500Z,3.90
2022-11-13T02:24:32.746Z,5.00
2022-11-13T02:27:02.534Z,3.30
2022-11-13T02:29:30.757Z,2.90
2022-11-13T02:31:59.055Z,4.23
2022-11-13T02:34:27.347Z,4.00
2022-11-13T02:36:55.599Z,3.70
2022-11-13T02:39:23.845Z,3.57
2022-11-13T02:41:53.517Z,4.27
2022-11-13T02:44:21.801Z,4.10
2022-11-13T02:46:50.093Z,3.97
2022-11-13T02:49:18.393Z,5.03
2022-11-13T02:51:46.685Z,3.03
2022-11-13T02:54:17.065Z,7.43
2022-11-13T02:56:45.697Z,3.73
2022-11-13T02:59:15.335Z,4.03
2022-11-13T03:01:43.890Z,2.90
2022-11-13T03:04:12.246Z,6.27
2022-11-13T03:06:40.567Z,4.30
2022-11-13T03:09:08.906Z,3.87
2022-11-13T03:11:37.165Z,4.73
2022-11-13T03:14:05.423Z,2.73
2022-11-13T03:16:35.125Z,6.20
2022-11-13T03:19:03.395Z,3.57
2022-11-13T03:21:32.302Z,2.97
2022-11-13T03:24:00.797Z,3.30
2022-11-13T03:26:29.267Z,4.00
2022-11-13T03:28:57.613Z,4.53
2022-11-13T03:31:25.859Z,2.70
2022-11-13T03:33:55.736Z,5.07
2022-11-13T03:36:24.013Z,3.73
2022-11-13T03:38:52.289Z,4.17
2022-11-13T03:41:20.645Z,3.40
2022-11-13T03:43:48.937Z,2.00
2022-11-13T03:46:17.245Z,3.67
2022-11-13T03:48:45.503Z,5.60
2022-11-13T03:51:15.104Z,3.80
2022-11-13T03:53:43.349Z,3.57
2022-11-13T03:56:11.681Z,3.30
2022-11-13T03:58:40.315Z,3.33
2022-11-13T04:01:08.907Z,2.37
2022-11-13T04:03:37.208Z,2.60
2022-11-13T04:06:05.612Z,3.60
2022-11-13T04:08:35.766Z,4.10
2022-11-13T04:11:07.557Z,2.63
2022-11-13T04:13:35.852Z,2.67
2022-11-13T04:16:04.095Z,3.10
2022-11-13T04:18:32.365Z,2.40
2022-11-13T04:21:01.130Z,3.37
2022-11-13T04:23:29.407Z,2.27
2022-11-13T04:25:59.049Z,3.03
2022-11-13T04:28:27.737Z,3.70
2022-11-13T04:30:56.368Z,3.60
2022-11-13T04:33:24.615Z,2.07
2022-11-13T04:35:52.862Z,4.10
2022-11-13T04:38:21.149Z,3.57
2022-11-13T04:40:51.010Z,3.10
2022-11-13T04:43:19.833Z,2.13
2022-11-13T04:45:48.142Z,4.70
2022-11-13T04:48:16.375Z,3.97
2022-11-13T04:50:44.660Z,2.57
2022-11-13T04:53:13.086Z,4.60
2022-11-13T04:55:41.366Z,2.00
2022-11-13T04:58:09.618Z,3.87
2022-11-13T05:00:39.479Z,2.77
2022-11-13T05:03:07.752Z,1.93
2022-11-13T05:05:35.971Z,2.37
2022-11-13T05:08:04.238Z,1.97
2022-11-13T05:10:32.503Z,2.03
2022-11-13T05:13:00.796Z,2.97
2022-11-13T05:15:29.051Z,3.13
2022-11-13T05:17:58.679Z,3.17
2022-11-13T05:20:26.945Z,2.80
2022-11-13T05:22:55.231Z,3.30
2022-11-13T05:25:23.485Z,3.47
2022-11-13T05:27:51.806Z,1.57
2022-11-13T05:30:20.094Z,1.67
2022-11-13T05:32:48.356Z,2.13
2022-11-13T05:35:18.342Z,4.30
2022-11-13T05:37:46.567Z,3.07
2022-11-13T05:40:14.804Z,3.03
2022-11-13T05:42:43.112Z,2.87
2022-11-13T05:45:12.013Z,3.50
2022-11-13T05:47:40.287Z,2.17
2022-11-13T05:50:08.980Z,1.60
2022-11-13T05:52:38.587Z,1.90
2022-11-13T05:55:07.476Z,2.60
2022-11-13T05:57:35.788Z,5.13
2022-11-13T06:00:04.103Z,2.47
2022-11-13T06:02:32.402Z,1.60
2022-11-13T06:05:00.717Z,3.43
2022-11-13T06:07:28.975Z,1.97
2022-11-13T06:09:58.572Z,3.07
2022-11-13T06:12:26.877Z,3.83
2022-11-13T06:14:55.112Z,3.70
2022-11-13T06:17:23.362Z,2.23
2022-11-13T06:19:51.649Z,1.20
2022-11-13T06:22:19.955Z,2.27
2022-11-13T06:24:48.236Z,2.23
2022-11-13T06:27:17.868Z,1.77
2022-11-13T06:29:47.001Z,1.30
2022-11-13T06:32:15.249Z,1.43
2022-11-13T06:34:44.749Z,1.93
2022-11-13T06:37:13.109Z,1.40
2022-11-13T06:39:41.430Z,3.20
2022-11-13T06:42:09.669Z,1.20
2022-11-13T06:44:39.339Z,1.30
2022-11-13T06:47:07.610Z,4.83
2022-11-13T06:49:35.888Z,2.03
2022-11-13T06:52:04.338Z,4.93
2022-11-13T06:54:32.696Z,2.83
2022-11-13T06:57:00.961Z,5.83
2022-11-13T06:59:29.201Z,1.60
2022-11-13T07:01:58.940Z,1.77
2022-11-13T07:04:27.278Z,1.40
2022-11-13T07:06:55.588Z,2.40
2022-11-13T07:09:23.982Z,4.67
2022-11-13T07:11:52.354Z,1.90
2022-11-13T07:14:20.651Z,2.33
2022-11-13T07:17:08.544Z,1.10
2022-11-13T07:19:38.690Z,4.73
2022-11-13T07:22:07.067Z,1.53
2022-11-13T07:24:35.325Z,1.53
2022-11-13T07:27:03.589Z,1.33
2022-11-13T07:29:32.008Z,2.63
2022-11-13T07:32:00.278Z,2.30
2022-11-13T07:34:28.597Z,3.47
2022-11-13T07:36:58.277Z,1.07
2022-11-13T07:39:26.722Z,0.83
2022-11-13T07:41:55.076Z,1.57
2022-11-13T07:44:48.078Z,1.43
2022-11-13T07:47:11.721Z,1.43
2022-11-13T07:49:40.029Z,2.03
2022-11-13T07:52:09.787Z,2.43
2022-11-13T07:54:38.138Z,1.43
2022-11-13T07:57:06.431Z,2.77
2022-11-13T07:59:34.730Z,4.10
2022-11-13T08:02:03.160Z,3.03
2022-11-13T08:04:31.793Z,2.50
2022-11-13T08:07:00.175Z,1.70
2022-11-13T08:09:30.166Z,3.27
2022-11-13T08:11:58.455Z,3.40
2022-11-13T08:14:26.765Z,1.87
2022-11-13T08:16:55.218Z,1.73
2022-11-13T08:19:23.536Z,3.30
2022-11-13T08:21:51.844Z,2.80
2022-11-13T08:24:20.329Z,3.33
2022-11-13T08:26:50.006Z,3.60
2022-11-13T08:29:18.435Z,3.90
2022-11-13T08:31:46.835Z,4.10
2022-11-13T08:34:17.492Z,1.53
2022-11-13T08:36:45.851Z,3.00
2022-11-13T08:39:14.449Z,2.07
2022-11-13T08:41:42.772Z,2.97
2022-11-13T08:44:14.339Z,3.93
2022-11-13T08:46:42.649Z,2.53
2022-11-13T08:49:12.095Z,4.70
2022-11-13T08:51:40.431Z,3.80
2022-11-13T08:54:08.719Z,3.47
2022-11-13T08:56:37.071Z,4.23
2022-11-13T08:59:05.425Z,3.13
2022-11-13T09:01:35.129Z,3.00
2022-11-13T09:04:03.889Z,6.53
2022-11-13T09:06:32.198Z,3.27
2022-11-13T09:09:00.496Z,3.33
2022-11-13T09:11:29.199Z,4.00
2022-11-13T09:13:57.558Z,4.03
2022-11-13T09:16:25.896Z,2.83
2022-11-13T09:18:55.729Z,2.00
2022-11-13T09:21:24.188Z,2.30
2022-11-13T09:23:52.551Z,3.87
2022-11-13T09:26:21.055Z,4.50
2022-11-13T09:28:49.505Z,3.53
2022-11-13T09:31:17.815Z,2.67
2022-11-13T09:33:46.268Z,2.17
2022-11-13T09:36:16.509Z,2.37
2022-11-13T09:38:44.795Z,1.97
2022-11-13T09:41:14.086Z,4.10
2022-11-13T09:43:43.019Z,4.40
2022-11-13T09:46:13.127Z,2.23
2022-11-13T09:48:42.502Z,2.60
2022-11-13T09:51:13.454Z,2.33
2022-11-13T09:53:43.513Z,2.70
2022-11-13T09:56:18.175Z,5.03
2022-11-13T09:58:47.734Z,3.43
2022-11-13T10:01:17.487Z,4.17
2022-11-13T10:04:01.474Z,2.90
2022-11-13T10:06:34.216Z,3.03
2022-11-13T10:09:05.632Z,4.23
2022-11-13T10:11:36.119Z,2.03
2022-11-13T10:14:05.268Z,2.73
2022-11-13T10:16:34.125Z,1.73
2022-11-13T10:19:03.032Z,3.43
2022-11-13T10:21:33.045Z,2.27
2022-11-13T10:24:01.341Z,3.97
2022-11-13T10:26:31.173Z,3.30
2022-11-13T10:29:01.472Z,4.23
2022-11-13T10:31:29.874Z,2.00
2022-11-13T10:33:58.406Z,2.40
2022-11-13T10:36:29.378Z,2.40
2022-11-13T10:39:03.578Z,4.47
2022-11-13T10:41:33.306Z,7.33
2022-11-13T10:44:07.145Z,4.33
2022-11-13T10:46:35.426Z,3.27
2022-11-13T10:49:12.717Z,2.70
2022-11-13T10:51:41.063Z,2.03
2022-11-13T10:54:22.630Z,4.40
2022-11-13T10:56:59.305Z,4.67
2022-11-13T10:59:27.812Z,2.83
2022-11-13T11:01:56.143Z,3.60
2022-11-13T11:04:27.398Z,3.40
2022-11-13T11:07:19.132Z,2.37
2022-11-13T11:09:44.490Z,3.30
2022-11-13T11:12:16.996Z,4.07
2022-11-13T11:14:47.486Z,5.00
2022-11-13T11:17:16.179Z,3.17
2022-11-13T11:19:54.256Z,3.03
2022-11-13T11:22:24.101Z,3.63
2022-11-13T11:24:53.392Z,2.47
2022-11-13T11:27:24.015Z,2.40
2022-11-13T11:29:53.138Z,3.63
2022-11-13T11:32:22.881Z,2.20
2022-11-13T11:34:57.833Z,4.63
2022-11-13T11:37:28.348Z,3.50
2022-11-13T11:39:59.767Z,3.70
2022-11-13T11:42:30.295Z,6.97
2022-11-13T11:45:02.468Z,4.43
2022-11-13T11:47:30.789Z,5.57
2022-11-13T11:49:59.092Z,12.37
2022-11-13T11:52:31.768Z,6.87
2022-11-13T11:55:02.988Z,11.00
2022-11-13T11:57:39.068Z,9.57
2022-11-13T12:00:07.860Z,7.63
2022-11-13T12:02:49.241Z,7.23
2022-11-13T12:05:23.992Z,6.60
2022-11-13T12:07:56.100Z,13.37
2022-11-13T12:10:26.412Z,12.43
2022-11-13T12:13:05.423Z,9.90
2022-11-13T12:15:37.155Z,9.30
2022-11-13T12:18:07.158Z,13.47
2022-11-13T12:20:37.728Z,19.30
2022-11-13T12:23:08.949Z,16.83
2022-11-13T12:25:37.830Z,19.40
2022-11-13T12:28:11.465Z,20.43
2022-11-13T12:30:41.413Z,29.40
2022-11-13T12:33:19.407Z,21.63
2022-11-13T12:35:47.797Z,37.57
2022-11-13T12:38:19.765Z,30.73
2022-11-13T12:40:49.959Z,26.47
2022-11-13T12:43:29.290Z,24.00
2022-11-13T12:45:58.595Z,45.93
2022-11-13T12:48:34.095Z,31.97
2022-11-13T12:51:02.950Z,30.97
2022-11-13T12:53:31.738Z,27.93
2022-11-13T12:56:01.023Z,23.50
2022-11-13T12:58:31.332Z,26.13
2022-11-13T13:01:01.088Z,22.87
2022-11-13T13:03:48.165Z,16.93
2022-11-13T13:06:22.809Z,29.03
2022-11-13T13:08:55.389Z,19.43
2022-11-13T13:11:25.441Z,17.67
2022-11-13T13:13:57.107Z,23.10
2022-11-13T13:16:25.975Z,23.53
2022-11-13T13:18:54.348Z,16.10
2022-11-13T13:21:22.750Z,17.17
2022-11-13T13:23:51.901Z,11.37
2022-11-13T13:26:21.857Z,13.10
2022-11-13T13:28:51.932Z,21.87
2022-11-13T13:31:24.602Z,11.03
2022-11-13T13:33:55.232Z,12.40
2022-11-13T13:36:26.151Z,8.30
2022-11-13T13:38:56.200Z,9.30
2022-11-13T13:41:28.002Z,7.83
2022-11-13T13:43:58.730Z,6.27
2022-11-13T13:46:28.678Z,6.73
2022-11-13T13:48:57.925Z,7.30
2022-11-13T13:51:28.497Z,10.07
2022-11-13T13:53:57.091Z,6.00
2022-11-13T13:56:25.520Z,9.13
2022-11-13T13:58:53.997Z,3.90
2022-11-13T14:01:30.993Z,5.17
2022-11-13T14:04:06.178Z,3.80
2022-11-13T14:06:34.742Z,3.40
2022-11-13T14:09:09.537Z,2.10
2022-11-13T14:11:37.832Z,3.23
2022-11-13T14:14:09.713Z,2.20
2022-11-13T14:16:49.470Z,2.83
2022-11-13T14:19:17.798Z,5.47
2022-11-13T14:21:46.516Z,3.03
2022-11-13T14:24:18.219Z,3.00
2022-11-13T14:26:46.526Z,3.60
2022-11-13T14:29:21.820Z,2.40
2022-11-13T14:31:51.528Z,4.77
2022-11-13T14:34:20.236Z,3.60
2022-11-13T14:36:49.277Z,3.33
2022-11-13T14:39:21.341Z,2.93
2022-11-13T14:41:50.992Z,2.37
2022-11-13T14:44:30.788Z,2.83
2022-11-13T14:47:02.496Z,2.93
2022-11-13T14:49:31.151Z,2.13
2022-11-13T14:52:00.246Z,2.43
2022-11-13T14:54:53.048Z,1.50
2022-11-13T14:57:21.065Z,5.33
2022-11-13T14:59:49.473Z,3.10
2022-11-13T15:02:20.306Z,1.73
2022-11-13T15:04:48.628Z,2.90
2022-11-13T15:07:21.779Z,2.23
2022-11-13T15:09:50.586Z,3.13
2022-11-13T15:12:18.890Z,2.40
2022-11-13T15:14:47.239Z,2.93
2022-11-13T15:17:16.746Z,2.83
2022-11-13T15:19:46.425Z,2.37
2022-11-13T15:22:30.275Z,7.40
2022-11-13T15:24:58.761Z,2.97
2022-11-13T15:27:27.298Z,2.43
2022-11-13T15:29:55.610Z,4.57
2022-11-13T15:32:23.936Z,2.97
2022-11-13T15:34:53.667Z,5.07
2022-11-13T15:37:21.929Z,4.37
2022-11-13T15:39:50.209Z,4.37
2022-11-13T15:42:19.403Z,3.83
2022-11-13T15:44:48.516Z,2.97
2022-11-13T15:47:23.264Z,4.27
2022-11-13T15:50:12.351Z,3.00
2022-11-13T15:52:42.096Z,4.20
2022-11-13T15:55:17.824Z,3.27
2022-11-13T15:57:46.351Z,5.03
2022-11-13T16:00:15.872Z,5.83
2022-11-13T16:02:44.177Z,3.30
2022-11-13T16:05:12.594Z,4.93
2022-11-13T16:07:42.573Z,4.40
2022-11-13T16:10:11.184Z,5.67
2022-11-13T16:12:39.851Z,3.33
2022-11-13T16:15:08.551Z,8.27
2022-11-13T16:17:39.973Z,5.77
2022-11-13T16:20:08.824Z,6.60
2022-11-13T16:22:37.102Z,4.83
2022-11-13T16:25:07.463Z,6.60
2022-11-13T16:27:35.763Z,7.73
2022-11-13T16:30:07.178Z,6.87
2022-11-13T16:32:35.667Z,7.60
2022-11-13T16:35:03.978Z,5.60
2022-11-13T16:37:32.407Z,7.93
2022-11-13T16:40:00.937Z,10.87
2022-11-13T16:42:31.133Z,4.77
2022-11-13T16:44:59.437Z,4.47
2022-11-13T16:47:27.999Z,8.57
2022-11-13T16:49:56.412Z,8.00
2022-11-13T16:52:26.808Z,6.57
2022-11-13T16:54:55.305Z,8.03
2022-11-13T16:57:23.677Z,4.70
2022-11-13T16:59:53.339Z,10.13
2022-11-13T17:02:21.761Z,9.93
2022-11-13T17:04:50.112Z,9.60
2022-11-13T17:07:18.733Z,8.23
2022-11-13T17:09:55.206Z,8.97
2022-11-13T17:12:32.514Z,8.93
2022-11-13T17:15:02.317Z,7.20
2022-11-13T17:17:30.786Z,8.07
2022-11-13T17:19:59.162Z,8.30
2022-11-13T17:22:27.755Z,7.03
2022-11-13T17:24:56.056Z,9.90
2022-11-13T17:27:24.478Z,6.63
2022-11-13T17:29:52.937Z,9.03
2022-11-13T17:32:22.622Z,11.27
2022-11-13T17:34:51.038Z,7.67
2022-11-13T17:37:24.041Z,11.03
2022-11-13T17:39:53.483Z,8.30
2022-11-13T17:42:21.882Z,9.40
2022-11-13T17:44:50.201Z,9.50
2022-11-13T17:47:18.638Z,8.30
2022-11-13T17:49:48.478Z,9.27
2022-11-13T17:52:16.807Z,7.87
2022-11-13T17:54:45.093Z,6.73
2022-11-13T17:57:13.483Z,9.90
2022-11-13T17:59:42.349Z,8.03
2022-11-13T18:02:11.213Z,8.30
2022-11-13T18:04:39.595Z,9.67
2022-11-13T18:07:09.300Z,9.17
2022-11-13T18:09:37.680Z,6.50
2022-11-13T18:12:06.514Z,9.70
2022-11-13T18:14:34.980Z,8.87
2022-11-13T18:17:03.441Z,8.57
2022-11-13T18:19:31.786Z,9.97
2022-11-13T18:22:00.146Z,9.23
2022-11-13T18:24:30.061Z,10.97
2022-11-13T18:26:58.513Z,10.40
2022-11-13T18:29:26.908Z,11.00
2022-11-13T18:31:55.764Z,6.77
2022-11-13T18:34:24.078Z,8.80
2022-11-13T18:36:52.395Z,10.03
2022-11-13T18:39:20.842Z,7.90
2022-11-13T18:41:50.591Z,9.00
2022-11-13T18:44:19.073Z,8.50
2022-11-13T18:46:47.426Z,7.23
2022-11-13T18:49:16.315Z,9.53
2022-11-13T18:51:44.689Z,9.37
2022-11-13T18:54:13.266Z,8.33
2022-11-13T18:56:41.781Z,8.30
2022-11-13T18:59:11.426Z,6.83
2022-11-13T19:01:40.190Z,7.40
2022-11-13T19:04:22.858Z,9.50
2022-11-13T19:06:51.520Z,8.67
2022-11-13T19:09:19.986Z,7.93
2022-11-13T19:11:48.633Z,4.20
2022-11-13T19:14:18.903Z,7.33
2022-11-13T19:16:47.195Z,13.90
2022-11-13T19:19:16.435Z,9.93
2022-11-13T19:21:44.755Z,8.47
2022-11-13T19:24:14.582Z,6.50
2022-11-13T19:26:43.027Z,8.43
2022-11-13T19:29:11.553Z,7.13
2022-11-13T19:31:41.262Z,5.50
2022-11-13T19:34:09.611Z,7.77
2022-11-13T19:36:38.288Z,6.53
2022-11-13T19:39:06.551Z,6.60
2022-11-13T19:41:34.856Z,11.83
2022-11-13T19:44:03.295Z,9.03
2022-11-13T19:46:34.017Z,7.17
2022-11-13T19:49:03.917Z,12.30
2022-11-13T19:51:32.217Z,6.20
2022-11-13T19:54:00.966Z,9.63
2022-11-13T19:56:29.565Z,7.33
2022-11-13T19:58:57.894Z,7.17
2022-11-13T20:01:26.727Z,8.30
2022-11-13T20:03:56.011Z,8.73
2022-11-13T20:06:25.882Z,8.40
2022-11-13T20:08:54.179Z,7.90
2022-11-13T20:11:22.573Z,8.80
2022-11-13T20:13:50.966Z,7.60
2022-11-13T20:16:21.029Z,7.43
2022-11-13T20:18:49.621Z,12.07
2022-11-13T20:21:17.935Z,10.53
2022-11-13T20:23:47.579Z,6.83
2022-11-13T20:26:16.769Z,15.10
2022-11-13T20:28:45.087Z,20.90
2022-11-13T20:31:16.432Z,38.53
2022-11-13T20:33:44.916Z,46.70
2022-11-13T20:36:13.304Z,74.30
2022-11-13T20:38:41.788Z,54.40
2022-11-13T20:41:12.007Z,73.77
2022-11-13T20:43:40.402Z,66.90
2022-11-13T20:46:09.028Z,70.57
2022-11-13T20:48:37.405Z,65.43
2022-11-13T20:51:09.083Z,51.63
2022-11-13T20:53:37.441Z,56.33
2022-11-13T20:56:05.974Z,50.77
2022-11-13T20:58:35.929Z,63.77
2022-11-13T21:01:04.788Z,54.23
2022-11-13T21:03:35.986Z,45.53
2022-11-13T21:06:08.646Z,36.03
2022-11-13T21:08:37.059Z,45.17
2022-11-13T21:11:06.354Z,34.17
2022-11-13T21:13:36.105Z,29.47
2022-11-13T21:16:06.171Z,33.47
2022-11-13T21:18:34.481Z,33.33
2022-11-13T21:21:06.240Z,28.63
2022-11-13T21:23:34.518Z,42.93
2022-11-13T21:26:02.799Z,52.43
2022-11-13T21:28:33.721Z,28.90
2022-11-13T21:31:03.991Z,29.10
2022-11-13T21:33:32.450Z,21.60
2022-11-13T21:36:05.227Z,31.03
2022-11-13T21:38:33.608Z,30.73
2022-11-13T21:41:19.486Z,25.67
2022-11-13T21:43:47.855Z,30.50
2022-11-13T21:46:17.539Z,24.60
2022-11-13T21:48:45.818Z,23.83
2022-11-13T21:51:14.262Z,21.97
2022-11-13T21:53:43.474Z,16.90
2022-11-13T21:56:15.665Z,16.33
2022-11-13T21:58:44.559Z,22.20
2022-11-13T22:01:12.841Z,26.03
2022-11-13T22:03:42.522Z,26.27
2022-11-13T22:06:14.631Z,23.60
2022-11-13T22:08:43.194Z,22.30
2022-11-13T22:11:11.504Z,23.57
2022-11-13T22:13:39.838Z,19.77
2022-11-13T22:16:08.508Z,19.97
2022-11-13T22:18:36.878Z,16.17
2022-11-13T22:21:07.180Z,20.10
2022-11-13T22:23:35.491Z,18.60
2022-11-13T22:26:04.223Z,15.03
2022-11-13T22:28:33.445Z,11.57
2022-11-13T22:31:01.736Z,21.87
2022-11-13T22:33:30.496Z,16.07
2022-11-13T22:36:02.044Z,12.80
2022-11-13T22:38:32.199Z,15.67
2022-11-13T22:41:04.319Z,13.13
2022-11-13T22:43:35.881Z,16.27
2022-11-13T22:46:04.927Z,13.73
2022-11-13T22:48:33.309Z,12.77
2022-11-13T22:51:04.905Z,12.47
2022-11-13T22:53:34.506Z,10.37
2022-11-13T22:56:03.487Z,15.80
2022-11-13T22:58:32.060Z,9.00
2022-11-13T23:01:05.255Z,13.87
2022-11-13T23:03:33.638Z,15.83
2022-11-13T23:06:03.652Z,11.23
2022-11-13T23:08:32.243Z,9.73
2022-11-13T23:11:02.023Z,12.27
2022-11-13T23:13:30.274Z,10.37
2022-11-13T23:15:58.550Z,10.30
2022-11-13T23:18:27.318Z,11.53
2022-11-13T23:20:55.782Z,7.03
2022-11-13T23:23:24.226Z,9.03
2022-11-13T23:25:52.702Z,9.67
2022-11-13T23:28:22.457Z,9.87
2022-11-13T23:30:50.786Z,13.07
2022-11-13T23:33:19.313Z,8.13
2022-11-13T23:35:47.592Z,7.40
2022-11-13T23:38:15.968Z,6.80
2022-11-13T23:40:44.289Z,7.03
2022-11-13T23:43:12.593Z,7.47
2022-11-13T23:45:42.242Z,10.00
2022-11-13T23:48:10.502Z,6.80
2022-11-13T23:50:38.797Z,7.60
2022-11-13T23:53:07.086Z,5.70
2022-11-13T23:55:35.371Z,12.23
2022-11-13T23:58:04.225Z,9.70
